Drayton Valley, Canada
Current Conditions -  °F | °C
As of 2:00 AM on Monday 22 Dec 2014 (Local Time) from CZVL Reporting Station
Broken Clouds Broken Clouds  
Wind Chill: 26°   Ceiling: 6500
Heat Index: 32°   Visibility: 9mi
Dew Point: 28°   Wind: 6mph
Humidity: 87%   Direction: 290°WNW
Pressure: 29.63"   Gusts: NA
Location:  53.22°N, 114.98°W
Report Text: CZVL 220900Z AUTO 29005KT 9SM BKN065 M00/M02 A2963 RMK SLP068
Loading
Personal Weather Stations






























Interactive Weather Map New forecast layout! Learn more

10-Day Weather Forecast

Advertisements
Track Severe Weather on mobile